createdAt,value
2024-01-06T00:00:53.572Z,2.68
2024-01-06T00:01:58.370Z,2.72
2024-01-06T00:03:00.756Z,2.65
2024-01-06T00:04:05.699Z,2.60
2024-01-06T00:05:08.953Z,2.55
2024-01-06T00:06:15.912Z,2.55
2024-01-06T00:07:18.242Z,2.51
2024-01-06T00:08:22.960Z,2.50
2024-01-06T00:09:27.731Z,2.50
2024-01-06T00:10:29.939Z,2.58
2024-01-06T00:11:34.671Z,2.62
2024-01-06T00:12:36.843Z,2.60
2024-01-06T00:13:41.571Z,2.54
2024-01-06T00:14:46.497Z,2.53
2024-01-06T00:15:51.339Z,2.49
2024-01-06T00:16:53.530Z,2.47
2024-01-06T00:17:58.345Z,2.45
2024-01-06T00:19:01.241Z,2.41
2024-01-06T00:20:06.588Z,2.38
2024-01-06T00:21:09.725Z,2.37
2024-01-06T00:22:14.884Z,2.35
2024-01-06T00:23:17.042Z,2.32
2024-01-06T00:24:24.457Z,2.36
2024-01-06T00:25:26.692Z,2.42
2024-01-06T00:26:31.507Z,2.42
2024-01-06T00:27:33.674Z,2.41
2024-01-06T00:28:38.738Z,2.46
2024-01-06T00:29:40.989Z,2.48
2024-01-06T00:30:46.013Z,2.49
2024-01-06T00:31:48.240Z,2.49
2024-01-06T00:32:53.010Z,2.56
2024-01-06T00:33:55.254Z,2.57
2024-01-06T00:34:57.791Z,2.56
2024-01-06T00:36:02.729Z,2.60
2024-01-06T00:37:05.268Z,2.57
2024-01-06T00:38:10.057Z,2.53
2024-01-06T00:39:15.058Z,2.49
2024-01-06T00:40:22.928Z,2.51
2024-01-06T00:41:25.091Z,2.48
2024-01-06T00:42:29.827Z,2.46
2024-01-06T00:43:32.005Z,2.44
2024-01-06T00:44:39.915Z,2.44
2024-01-06T00:45:42.216Z,2.44
2024-01-06T00:46:44.532Z,2.42
2024-01-06T00:47:49.610Z,2.41
2024-01-06T00:48:51.975Z,2.37
2024-01-06T00:49:56.769Z,2.37
2024-01-06T00:50:59.088Z,2.38
2024-01-06T00:52:03.831Z,2.35
2024-01-06T00:53:05.965Z,2.34
2024-01-06T00:54:08.156Z,2.32
2024-01-06T00:55:13.154Z,2.35
2024-01-06T00:56:17.968Z,2.34
2024-01-06T00:57:25.596Z,2.33
2024-01-06T00:58:27.903Z,2.39
2024-01-06T00:59:32.716Z,2.41
2024-01-06T01:00:35.104Z,2.39
2024-01-06T01:01:40.042Z,2.42
2024-01-06T01:02:42.384Z,2.41
2024-01-06T01:03:47.243Z,2.46
2024-01-06T01:04:49.533Z,2.45
2024-01-06T01:05:51.938Z,2.46
2024-01-06T01:06:56.693Z,2.44
2024-01-06T01:07:58.824Z,2.43
2024-01-06T01:09:03.726Z,2.43
2024-01-06T01:10:07.195Z,2.39
2024-01-06T01:11:12.133Z,2.39
2024-01-06T01:12:17.108Z,2.41
2024-01-06T01:13:19.261Z,2.47
2024-01-06T01:14:24.118Z,2.47
2024-01-06T01:15:26.345Z,2.45
2024-01-06T01:16:31.108Z,2.42
2024-01-06T01:17:33.300Z,2.41
2024-01-06T01:18:38.149Z,2.42
2024-01-06T01:19:40.428Z,2.38
2024-01-06T01:20:43.178Z,2.44
2024-01-06T01:21:47.946Z,2.42
2024-01-06T01:22:50.401Z,2.43
2024-01-06T01:23:55.048Z,2.42
2024-01-06T01:24:57.205Z,2.39
2024-01-06T01:26:01.959Z,2.38
2024-01-06T01:27:04.559Z,2.37
2024-01-06T01:28:09.378Z,2.37
2024-01-06T01:29:14.081Z,2.40
2024-01-06T01:30:16.583Z,2.38
2024-01-06T01:31:21.402Z,2.38
2024-01-06T01:32:23.788Z,2.35
2024-01-06T01:33:29.575Z,2.34
2024-01-06T01:34:31.888Z,2.31
2024-01-06T01:35:36.778Z,2.30
2024-01-06T01:36:38.949Z,2.27
2024-01-06T01:37:43.841Z,2.28
2024-01-06T01:38:45.992Z,2.28
2024-01-06T01:39:51.629Z,2.30
2024-01-06T01:40:53.715Z,2.31
2024-01-06T01:41:58.418Z,2.28
2024-01-06T01:43:00.530Z,2.26
2024-01-06T01:44:08.576Z,2.24
2024-01-06T01:45:13.009Z,2.22
2024-01-06T01:46:18.397Z,2.22
2024-01-06T01:47:22.828Z,2.20
2024-01-06T01:48:29.094Z,2.24
2024-01-06T01:49:31.508Z,2.20
2024-01-06T01:50:36.454Z,2.22
2024-01-06T01:51:39.821Z,2.20
2024-01-06T01:52:45.397Z,2.21
2024-01-06T01:53:47.892Z,2.19
2024-01-06T01:54:50.435Z,2.20
2024-01-06T01:55:55.421Z,2.21
2024-01-06T01:56:57.909Z,2.17
2024-01-06T01:58:02.729Z,2.24
2024-01-06T01:59:11.205Z,2.23
2024-01-06T02:00:17.448Z,2.20
2024-01-06T02:01:20.596Z,2.17
2024-01-06T02:02:26.246Z,2.12
2024-01-06T02:03:31.656Z,2.11
2024-01-06T02:04:36.689Z,2.08
2024-01-06T02:05:38.924Z,2.13
2024-01-06T02:06:43.701Z,2.10
2024-01-06T02:07:46.447Z,2.08
2024-01-06T02:08:51.255Z,2.07
2024-01-06T02:09:53.546Z,2.07
2024-01-06T02:10:59.566Z,2.06
2024-01-06T02:12:01.808Z,2.04
2024-01-06T02:13:13.049Z,2.01
2024-01-06T02:14:18.055Z,2.03
2024-01-06T02:15:23.292Z,1.99
2024-01-06T02:16:25.444Z,2.03
2024-01-06T02:17:30.249Z,2.07
2024-01-06T02:18:33.015Z,2.04
2024-01-06T02:19:35.496Z,2.00
2024-01-06T02:20:41.730Z,2.00
2024-01-06T02:21:45.424Z,2.04
2024-01-06T02:22:50.365Z,2.05
2024-01-06T02:23:55.082Z,2.07
2024-01-06T02:24:57.918Z,2.06
2024-01-06T02:26:02.623Z,2.04
2024-01-06T02:27:05.701Z,2.00
2024-01-06T02:28:10.434Z,2.05
2024-01-06T02:29:12.589Z,2.05
2024-01-06T02:30:17.624Z,2.10
2024-01-06T02:31:19.949Z,2.16
2024-01-06T02:32:24.879Z,2.13
2024-01-06T02:33:27.325Z,2.21
2024-01-06T02:34:34.119Z,2.15
2024-01-06T02:35:36.606Z,2.17
2024-01-06T02:36:41.509Z,2.11
2024-01-06T02:37:43.747Z,2.12
2024-01-06T02:38:51.179Z,2.14
2024-01-06T02:39:54.448Z,2.12
2024-01-06T02:40:59.253Z,2.13
2024-01-06T02:42:01.475Z,2.20
2024-01-06T02:43:06.435Z,2.19
2024-01-06T02:44:13.531Z,2.11
2024-01-06T02:45:18.771Z,2.09
2024-01-06T02:46:20.957Z,2.07
2024-01-06T02:47:25.698Z,2.04
2024-01-06T02:48:28.123Z,2.03
2024-01-06T02:49:33.090Z,2.00
2024-01-06T02:50:35.329Z,2.01
2024-01-06T02:51:40.157Z,1.95
2024-01-06T02:52:42.429Z,1.97
2024-01-06T02:53:47.172Z,1.96
2024-01-06T02:54:51.957Z,1.92
2024-01-06T02:55:56.922Z,1.90
2024-01-06T02:56:59.044Z,1.88
2024-01-06T02:58:04.017Z,1.85
2024-01-06T02:59:06.185Z,1.84
2024-01-06T03:00:14.122Z,1.85
2024-01-06T03:01:16.431Z,1.84
2024-01-06T03:02:21.366Z,1.82
2024-01-06T03:03:23.791Z,1.83
2024-01-06T03:04:28.684Z,1.84
2024-01-06T03:05:31.039Z,1.80
2024-01-06T03:06:37.117Z,1.77
2024-01-06T03:07:39.384Z,1.74
2024-01-06T03:08:44.155Z,1.73
2024-01-06T03:09:46.376Z,1.74
2024-01-06T03:10:53.897Z,1.81
2024-01-06T03:11:56.097Z,1.82
2024-01-06T03:13:00.978Z,1.81
2024-01-06T03:14:04.072Z,1.77
2024-01-06T03:15:09.787Z,1.74
2024-01-06T03:16:13.546Z,1.74
2024-01-06T03:17:19.306Z,1.70
2024-01-06T03:18:21.720Z,1.69
2024-01-06T03:19:29.044Z,1.74
2024-01-06T03:20:31.341Z,1.71
2024-01-06T03:21:33.548Z,1.69
2024-01-06T03:22:39.364Z,1.70
2024-01-06T03:23:41.581Z,1.77
2024-01-06T03:24:46.442Z,1.73
2024-01-06T03:25:51.173Z,1.80
2024-01-06T03:26:55.928Z,1.89
2024-01-06T03:27:58.057Z,1.86
2024-01-06T03:29:03.969Z,1.85
2024-01-06T03:30:08.054Z,1.89
2024-01-06T03:31:13.077Z,1.85
2024-01-06T03:32:15.361Z,1.82
2024-01-06T03:33:20.341Z,1.78
2024-01-06T03:34:22.784Z,1.75
2024-01-06T03:35:27.598Z,1.74
2024-01-06T03:36:29.868Z,1.74
2024-01-06T03:37:32.942Z,1.80
2024-01-06T03:38:38.161Z,1.76
2024-01-06T03:39:40.455Z,1.73
2024-01-06T03:40:45.441Z,1.77
2024-01-06T03:41:50.624Z,1.75
2024-01-06T03:42:55.598Z,1.72
2024-01-06T03:43:57.857Z,1.68
2024-01-06T03:45:00.016Z,1.67
2024-01-06T03:46:04.743Z,1.67
2024-01-06T03:47:07.327Z,1.64
2024-01-06T03:48:09.918Z,1.64
2024-01-06T03:49:14.862Z,1.64
2024-01-06T03:50:17.257Z,1.64
2024-01-06T03:51:23.458Z,1.63
2024-01-06T03:52:25.855Z,1.60
2024-01-06T03:53:30.640Z,1.56
2024-01-06T03:54:32.892Z,1.54
2024-01-06T03:55:37.770Z,1.51
2024-01-06T03:56:39.904Z,1.54
2024-01-06T03:57:47.339Z,1.55
2024-01-06T03:58:49.557Z,1.52
2024-01-06T03:59:54.311Z,1.50
2024-01-06T04:00:56.722Z,1.51
2024-01-06T04:02:01.538Z,1.47
2024-01-06T04:03:03.870Z,1.49
2024-01-06T04:04:09.228Z,1.51
2024-01-06T04:05:11.600Z,1.64
2024-01-06T04:06:16.556Z,1.60
2024-01-06T04:07:18.772Z,1.64
2024-01-06T04:08:23.546Z,1.62
2024-01-06T04:09:25.897Z,1.59
2024-01-06T04:10:30.772Z,1.61
2024-01-06T04:11:33.031Z,1.63
2024-01-06T04:12:37.767Z,1.60
2024-01-06T04:13:42.587Z,1.59
2024-01-06T04:14:47.356Z,1.57
2024-01-06T04:15:49.610Z,1.53
2024-01-06T04:16:54.439Z,1.53
2024-01-06T04:17:56.931Z,1.55
2024-01-06T04:19:01.884Z,1.55
2024-01-06T04:20:05.540Z,1.55
2024-01-06T04:21:10.379Z,1.55
2024-01-06T04:22:12.593Z,1.54
2024-01-06T04:23:17.413Z,1.54
2024-01-06T04:24:19.642Z,1.56
2024-01-06T04:25:25.136Z,1.64
2024-01-06T04:26:27.313Z,1.64
2024-01-06T04:27:32.398Z,1.62
2024-01-06T04:28:34.599Z,1.60
2024-01-06T04:29:41.997Z,1.57
2024-01-06T04:30:44.350Z,1.57
2024-01-06T04:31:49.342Z,1.55
2024-01-06T04:32:51.696Z,1.53
2024-01-06T04:33:56.635Z,1.60
2024-01-06T04:34:59.067Z,1.55
2024-01-06T04:36:03.883Z,1.52
2024-01-06T04:37:08.668Z,1.50
2024-01-06T04:38:10.843Z,1.50
2024-01-06T04:39:16.506Z,1.50
2024-01-06T04:40:18.897Z,1.52
2024-01-06T04:41:21.089Z,1.50
2024-01-06T04:42:26.299Z,1.50
2024-01-06T04:43:28.519Z,1.51
2024-01-06T04:44:30.891Z,1.52
2024-01-06T04:45:38.747Z,1.54
2024-01-06T04:46:40.959Z,1.57
2024-01-06T04:47:45.857Z,1.54
2024-01-06T04:48:48.861Z,1.52
2024-01-06T04:49:51.473Z,1.51
2024-01-06T04:50:56.347Z,1.47
2024-01-06T04:51:58.600Z,1.53
2024-01-06T04:53:00.878Z,1.52
2024-01-06T04:54:05.741Z,1.60
2024-01-06T04:55:08.575Z,1.65
2024-01-06T04:56:13.339Z,1.69
2024-01-06T04:57:15.739Z,1.70
2024-01-06T04:58:20.581Z,1.65
2024-01-06T04:59:22.849Z,1.77
2024-01-06T05:00:28.028Z,1.74
2024-01-06T05:01:33.309Z,1.73
2024-01-06T05:02:38.516Z,1.64
2024-01-06T05:03:40.778Z,1.61
2024-01-06T05:04:45.742Z,1.58
2024-01-06T05:05:48.212Z,1.60
2024-01-06T05:06:51.320Z,1.62
2024-01-06T05:07:56.252Z,1.60
2024-01-06T05:08:58.476Z,1.65
2024-01-06T05:10:03.553Z,1.62
2024-01-06T05:11:07.592Z,1.56
2024-01-06T05:12:12.804Z,1.55
2024-01-06T05:13:15.076Z,1.55
2024-01-06T05:14:19.961Z,1.58
2024-01-06T05:15:22.207Z,1.61
2024-01-06T05:16:27.044Z,1.73
2024-01-06T05:17:31.993Z,1.65
2024-01-06T05:18:37.069Z,1.72
2024-01-06T05:19:39.769Z,1.64
2024-01-06T05:20:44.907Z,1.60
2024-01-06T05:21:47.368Z,1.63
2024-01-06T05:22:52.207Z,1.57
2024-01-06T05:23:54.544Z,1.66
2024-01-06T05:24:59.427Z,1.68
2024-01-06T05:26:01.647Z,1.68
2024-01-06T05:27:04.175Z,1.62
2024-01-06T05:28:09.334Z,1.67
2024-01-06T05:29:11.586Z,1.63
2024-01-06T05:30:16.990Z,1.61
2024-01-06T05:31:19.230Z,1.56
2024-01-06T05:32:24.200Z,1.67
2024-01-06T05:33:29.175Z,1.64
2024-01-06T05:34:34.148Z,1.63
2024-01-06T05:35:36.484Z,1.69
2024-01-06T05:36:41.452Z,1.71
2024-01-06T05:37:43.938Z,1.74
2024-01-06T05:38:52.342Z,1.86
2024-01-06T05:39:56.075Z,1.79
2024-01-06T05:41:01.371Z,1.76
2024-01-06T05:42:03.674Z,1.82
2024-01-06T05:43:08.637Z,1.81
2024-01-06T05:44:11.042Z,1.81
2024-01-06T05:45:16.455Z,1.79
2024-01-06T05:46:23.231Z,1.84
2024-01-06T05:47:28.779Z,1.80
2024-01-06T05:48:33.961Z,1.84
2024-01-06T05:49:36.503Z,1.91
2024-01-06T05:50:42.191Z,1.86
2024-01-06T05:51:46.385Z,1.95
2024-01-06T05:52:51.663Z,1.85
2024-01-06T05:53:53.846Z,1.84
2024-01-06T05:54:59.735Z,1.81
2024-01-06T05:56:02.016Z,1.80
2024-01-06T05:57:07.280Z,1.88
2024-01-06T05:58:09.462Z,1.85
2024-01-06T05:59:14.262Z,1.85
2024-01-06T06:00:17.754Z,1.86
2024-01-06T06:01:23.131Z,1.87
2024-01-06T06:02:28.518Z,1.83
2024-01-06T06:03:33.585Z,1.81
2024-01-06T06:04:38.525Z,1.81
2024-01-06T06:05:40.801Z,1.89
2024-01-06T06:06:45.680Z,1.91
2024-01-06T06:07:47.968Z,1.92
2024-01-06T06:08:52.796Z,1.87
2024-01-06T06:09:55.447Z,1.86
2024-01-06T06:11:06.474Z,1.86
2024-01-06T06:12:09.711Z,1.91
2024-01-06T06:13:14.538Z,1.97
2024-01-06T06:14:16.772Z,1.94
2024-01-06T06:15:21.620Z,1.94
2024-01-06T06:16:23.859Z,1.88
2024-01-06T06:17:29.102Z,1.85
2024-01-06T06:18:34.461Z,1.92
2024-01-06T06:19:39.617Z,1.91
2024-01-06T06:20:43.174Z,1.85
2024-01-06T06:21:47.248Z,1.81
2024-01-06T06:22:52.601Z,1.92
2024-01-06T06:23:54.820Z,1.94
2024-01-06T06:24:59.558Z,1.95
2024-01-06T06:26:06.142Z,1.90
2024-01-06T06:27:13.058Z,1.82
2024-01-06T06:28:15.813Z,1.77
2024-01-06T06:29:22.256Z,1.74
2024-01-06T06:30:24.469Z,1.72
2024-01-06T06:31:29.552Z,1.81
2024-01-06T06:32:31.877Z,1.74
2024-01-06T06:33:40.996Z,1.72
2024-01-06T06:34:44.049Z,1.79
2024-01-06T06:35:48.877Z,1.78
2024-01-06T06:36:51.231Z,1.75
2024-01-06T06:37:56.060Z,1.76
2024-01-06T06:38:59.784Z,1.75
2024-01-06T06:40:04.577Z,1.69
2024-01-06T06:41:06.817Z,1.63
2024-01-06T06:42:12.033Z,1.67
2024-01-06T06:43:16.441Z,1.64
2024-01-06T06:44:22.559Z,1.61
2024-01-06T06:45:25.015Z,1.68
2024-01-06T06:46:29.923Z,1.66
2024-01-06T06:47:32.118Z,1.64
2024-01-06T06:48:42.366Z,1.60
2024-01-06T06:49:44.594Z,1.56
2024-01-06T06:50:49.767Z,1.55
2024-01-06T06:51:52.067Z,1.61
2024-01-06T06:52:57.007Z,1.62
2024-01-06T06:54:00.000Z,1.64
2024-01-06T06:55:04.847Z,1.58
2024-01-06T06:56:08.217Z,1.56
2024-01-06T06:57:13.153Z,1.54
2024-01-06T06:58:15.445Z,1.54
2024-01-06T06:59:20.543Z,1.63
2024-01-06T07:00:23.036Z,1.60
2024-01-06T07:01:32.284Z,1.60
2024-01-06T07:02:36.122Z,1.58
2024-01-06T07:03:43.750Z,1.64
2024-01-06T07:04:46.380Z,1.64
2024-01-06T07:05:51.604Z,1.61
2024-01-06T07:06:54.030Z,1.69
2024-01-06T07:07:58.995Z,1.68
2024-01-06T07:09:01.286Z,1.63
2024-01-06T07:10:07.024Z,1.60
2024-01-06T07:11:09.604Z,1.59
2024-01-06T07:12:14.576Z,1.63
2024-01-06T07:13:16.947Z,1.63
2024-01-06T07:14:21.815Z,1.64
2024-01-06T07:15:24.107Z,1.69
2024-01-06T07:16:28.942Z,1.67
2024-01-06T07:17:31.247Z,1.68
2024-01-06T07:18:36.758Z,1.64
2024-01-06T07:19:41.832Z,1.58
2024-01-06T07:20:46.762Z,1.58
2024-01-06T07:21:49.117Z,1.56
2024-01-06T07:22:54.012Z,1.64
2024-01-06T07:23:56.332Z,1.68
2024-01-06T07:25:01.210Z,1.74
2024-01-06T07:26:03.660Z,1.72
2024-01-06T07:27:08.504Z,1.70
2024-01-06T07:28:10.828Z,1.60
2024-01-06T07:29:15.788Z,1.56
2024-01-06T07:30:18.445Z,1.60
2024-01-06T07:31:23.417Z,1.58
2024-01-06T07:32:26.243Z,1.58
2024-01-06T07:33:31.196Z,1.65
2024-01-06T07:34:33.781Z,1.66
2024-01-06T07:35:44.688Z,1.60
2024-01-06T07:36:47.006Z,1.65
2024-01-06T07:37:51.896Z,1.71
2024-01-06T07:38:54.221Z,1.77
2024-01-06T07:39:59.261Z,1.74
2024-01-06T07:41:01.763Z,1.71
2024-01-06T07:42:07.457Z,1.68
2024-01-06T07:43:10.192Z,1.69
2024-01-06T07:44:15.115Z,1.74
2024-01-06T07:45:17.437Z,1.81
2024-01-06T07:46:22.305Z,1.76
2024-01-06T07:47:27.389Z,1.81
2024-01-06T07:48:32.508Z,1.79
2024-01-06T07:49:35.047Z,1.76
2024-01-06T07:50:42.738Z,1.74
2024-01-06T07:51:45.595Z,1.71
2024-01-06T07:52:50.633Z,1.77
2024-01-06T07:53:53.192Z,1.75
2024-01-06T07:54:58.292Z,1.77
2024-01-06T07:56:01.221Z,1.81
2024-01-06T07:57:06.657Z,1.85
2024-01-06T07:58:09.481Z,1.82
2024-01-06T07:59:14.963Z,1.79
2024-01-06T08:00:18.067Z,1.84
2024-01-06T08:01:23.281Z,1.78
2024-01-06T08:02:26.130Z,1.76
2024-01-06T08:03:31.227Z,1.76
2024-01-06T08:04:33.729Z,1.79
2024-01-06T08:05:39.126Z,1.74
2024-01-06T08:06:44.237Z,1.74
2024-01-06T08:07:49.136Z,1.80
2024-01-06T08:08:52.125Z,1.73
2024-01-06T08:09:54.556Z,1.77
2024-01-06T08:10:59.665Z,1.76
2024-01-06T08:12:02.809Z,1.76
2024-01-06T08:13:08.382Z,1.79
2024-01-06T08:14:12.250Z,1.85
2024-01-06T08:15:17.286Z,1.86
2024-01-06T08:16:19.857Z,1.79
2024-01-06T08:17:24.824Z,1.87
2024-01-06T08:18:27.422Z,1.85
2024-01-06T08:19:34.691Z,1.85
2024-01-06T08:20:37.089Z,1.87
2024-01-06T08:21:42.018Z,1.90
2024-01-06T08:22:47.006Z,1.90
2024-01-06T08:23:51.920Z,1.89
2024-01-06T08:24:54.378Z,1.95
2024-01-06T08:25:59.501Z,1.94
2024-01-06T08:27:01.643Z,2.03
2024-01-06T08:28:06.987Z,2.01
2024-01-06T08:29:09.423Z,2.00
2024-01-06T08:30:13.095Z,2.03
2024-01-06T08:31:18.202Z,2.07
2024-01-06T08:32:20.475Z,2.11
2024-01-06T08:33:22.838Z,2.12
2024-01-06T08:34:32.224Z,2.15
2024-01-06T08:35:41.475Z,2.22
2024-01-06T08:36:46.585Z,2.23
2024-01-06T08:37:51.921Z,2.21
2024-01-06T08:38:56.948Z,2.13
2024-01-06T08:39:59.428Z,2.15
2024-01-06T08:41:04.307Z,2.18
2024-01-06T08:42:06.986Z,2.23
2024-01-06T08:43:11.797Z,2.17
2024-01-06T08:44:14.035Z,2.24
2024-01-06T08:45:19.111Z,2.19
2024-01-06T08:46:21.534Z,2.23
2024-01-06T08:47:26.767Z,2.22
2024-01-06T08:48:30.069Z,2.26
2024-01-06T08:49:36.408Z,2.33
2024-01-06T08:50:38.790Z,2.36
2024-01-06T08:51:43.734Z,2.30
2024-01-06T08:52:46.124Z,2.34
2024-01-06T08:53:54.656Z,2.38
2024-01-06T08:54:57.238Z,2.55
2024-01-06T08:56:02.183Z,2.54
2024-01-06T08:57:05.074Z,2.57
2024-01-06T08:58:10.055Z,2.55
2024-01-06T08:59:12.401Z,2.45
2024-01-06T09:00:18.827Z,2.51
2024-01-06T09:01:22.065Z,2.52
2024-01-06T09:02:27.052Z,2.55
2024-01-06T09:03:29.548Z,2.61
2024-01-06T09:04:34.591Z,2.66
2024-01-06T09:05:37.591Z,2.69
2024-01-06T09:06:40.142Z,2.75
2024-01-06T09:07:46.074Z,2.71
2024-01-06T09:08:50.993Z,2.70
2024-01-06T09:09:55.977Z,2.75
2024-01-06T09:10:58.777Z,2.75
2024-01-06T09:12:03.820Z,2.74
2024-01-06T09:13:06.076Z,2.88
2024-01-06T09:14:11.922Z,2.90
2024-01-06T09:15:14.177Z,2.83
2024-01-06T09:16:19.838Z,2.91
2024-01-06T09:17:23.966Z,2.93
2024-01-06T09:18:30.212Z,2.95
2024-01-06T09:19:32.568Z,2.96
2024-01-06T09:20:37.494Z,3.02
2024-01-06T09:21:39.722Z,2.95
2024-01-06T09:22:44.586Z,3.08
2024-01-06T09:23:46.787Z,3.08
2024-01-06T09:24:54.751Z,3.06
2024-01-06T09:25:57.131Z,3.09
2024-01-06T09:27:02.007Z,3.10
2024-01-06T09:28:04.942Z,3.17
2024-01-06T09:30:13.236Z,3.29
2024-01-06T09:31:18.463Z,3.41
2024-01-06T09:32:21.314Z,3.35
2024-01-06T09:33:26.359Z,3.35
2024-01-06T09:34:28.962Z,3.38
2024-01-06T09:35:34.000Z,3.45
2024-01-06T09:36:36.908Z,3.41
2024-01-06T09:37:41.887Z,3.20
2024-01-06T09:38:44.210Z,3.12
2024-01-06T09:39:49.199Z,2.98
2024-01-06T09:40:55.285Z,3.09
2024-01-06T09:42:00.263Z,3.12
2024-01-06T09:43:03.451Z,3.05
2024-01-06T09:44:08.524Z,3.11
2024-01-06T09:45:11.295Z,3.15
2024-01-06T09:46:26.235Z,3.25
2024-01-06T09:47:33.593Z,3.19
2024-01-06T09:48:44.146Z,3.28
2024-01-06T09:49:50.558Z,3.27
2024-01-06T09:51:00.685Z,3.35
2024-01-06T09:52:06.200Z,3.35
2024-01-06T09:53:13.372Z,3.21
2024-01-06T09:54:16.435Z,3.14
2024-01-06T09:55:21.477Z,3.11
2024-01-06T09:56:27.461Z,2.94
2024-01-06T09:57:33.207Z,3.02
2024-01-06T09:58:38.164Z,2.97
2024-01-06T09:59:45.378Z,2.96
2024-01-06T10:00:51.018Z,3.03
2024-01-06T10:01:57.025Z,3.11
2024-01-06T10:03:00.965Z,3.09
2024-01-06T10:04:06.625Z,3.07
2024-01-06T10:05:09.741Z,3.02
2024-01-06T10:06:14.856Z,3.07
2024-01-06T10:07:17.272Z,3.13
2024-01-06T10:08:22.695Z,3.08
2024-01-06T10:09:28.971Z,3.20
2024-01-06T10:10:34.313Z,3.22
2024-01-06T10:11:42.743Z,3.21
2024-01-06T10:12:45.422Z,3.25
2024-01-06T10:13:52.577Z,3.31
2024-01-06T10:14:55.436Z,3.28
2024-01-06T10:16:00.732Z,3.19
2024-01-06T10:17:03.261Z,3.23
2024-01-06T10:18:09.828Z,3.38
2024-01-06T10:19:12.585Z,3.47
2024-01-06T10:20:19.096Z,3.58
2024-01-06T10:21:21.997Z,3.72
2024-01-06T10:22:27.222Z,3.74
2024-01-06T10:23:30.194Z,3.76
2024-01-06T10:24:35.238Z,3.79
2024-01-06T10:25:37.696Z,3.58
2024-01-06T10:26:45.389Z,3.78
2024-01-06T10:27:47.678Z,3.71
2024-01-06T10:28:53.596Z,3.39
2024-01-06T10:29:55.927Z,3.52
2024-01-06T10:31:04.044Z,3.40
2024-01-06T10:32:07.484Z,3.60
2024-01-06T10:33:15.162Z,3.48
2024-01-06T10:34:17.855Z,3.34
2024-01-06T10:35:23.127Z,3.21
2024-01-06T10:36:26.641Z,3.12
2024-01-06T10:37:32.221Z,3.16
2024-01-06T10:38:35.916Z,3.10
2024-01-06T10:39:41.095Z,3.02
2024-01-06T10:40:58.055Z,2.98
2024-01-06T10:42:08.081Z,3.12
2024-01-06T10:43:11.917Z,3.15
2024-01-06T10:44:18.423Z,3.13
2024-01-06T10:45:20.784Z,2.97
2024-01-06T10:46:24.395Z,2.89
2024-01-06T10:47:31.918Z,2.90
2024-01-06T10:48:35.610Z,2.78
2024-01-06T10:49:41.090Z,2.86
2024-01-06T10:50:45.352Z,2.89
2024-01-06T10:51:53.025Z,2.79
2024-01-06T10:52:57.857Z,2.87
2024-01-06T10:54:05.510Z,3.03
2024-01-06T10:55:08.294Z,2.91
2024-01-06T10:56:14.337Z,3.07
2024-01-06T10:57:21.313Z,3.07
2024-01-06T10:58:27.163Z,2.82
2024-01-06T10:59:31.865Z,2.93
2024-01-06T11:00:36.902Z,2.92
2024-01-06T11:01:40.669Z,2.90
2024-01-06T11:02:43.536Z,2.89
2024-01-06T11:03:50.155Z,2.90
2024-01-06T11:04:52.676Z,2.90
2024-01-06T11:05:58.184Z,2.72
2024-01-06T11:07:03.772Z,2.77
2024-01-06T11:08:09.851Z,2.76
2024-01-06T11:09:18.533Z,2.66
2024-01-06T11:10:24.817Z,2.65
2024-01-06T11:11:27.443Z,2.72
2024-01-06T11:12:33.005Z,2.60
2024-01-06T11:13:39.870Z,2.76
2024-01-06T11:14:42.210Z,2.83
2024-01-06T11:15:48.610Z,2.84
2024-01-06T11:16:51.747Z,2.87
2024-01-06T11:17:55.524Z,2.77
2024-01-06T11:19:00.858Z,2.88
2024-01-06T11:20:07.386Z,2.80
2024-01-06T11:21:29.920Z,2.76
2024-01-06T11:22:33.659Z,2.63
2024-01-06T11:23:39.928Z,2.72
2024-01-06T11:24:48.608Z,2.76
2024-01-06T11:25:53.691Z,2.91
2024-01-06T11:26:58.265Z,3.05
2024-01-06T11:28:13.820Z,2.93
2024-01-06T11:29:16.346Z,2.82
2024-01-06T11:30:26.015Z,2.92
2024-01-06T11:31:30.645Z,2.76
2024-01-06T11:32:36.656Z,2.97
2024-01-06T11:33:46.012Z,2.71
2024-01-06T11:34:51.708Z,2.60
2024-01-06T11:35:56.806Z,2.75
2024-01-06T11:36:59.421Z,2.82
2024-01-06T11:38:05.925Z,2.72
2024-01-06T11:39:08.276Z,2.87
2024-01-06T11:40:15.145Z,2.99
2024-01-06T11:41:52.940Z,2.82
2024-01-06T11:42:59.679Z,2.80
2024-01-06T11:44:08.711Z,2.83
2024-01-06T11:45:10.990Z,2.84
2024-01-06T11:46:16.660Z,2.81
2024-01-06T11:47:24.771Z,2.60
2024-01-06T11:48:33.889Z,2.62
2024-01-06T11:49:36.372Z,2.54
2024-01-06T11:50:43.559Z,2.56
2024-01-06T11:51:45.834Z,2.71
2024-01-06T11:52:48.217Z,2.63
2024-01-06T11:53:53.107Z,2.51
2024-01-06T11:54:57.230Z,2.61
2024-01-06T11:56:03.916Z,2.58
2024-01-06T11:57:06.348Z,2.65
2024-01-06T11:58:11.617Z,2.70
2024-01-06T11:59:16.986Z,2.72
2024-01-06T12:00:22.734Z,2.73
2024-01-06T12:01:25.275Z,2.65
2024-01-06T12:02:30.283Z,2.66
2024-01-06T12:03:32.597Z,2.72
2024-01-06T12:04:37.442Z,2.73
2024-01-06T12:05:39.764Z,2.71
2024-01-06T12:06:44.695Z,2.64
2024-01-06T12:07:55.479Z,2.70
2024-01-06T12:09:08.072Z,2.76
2024-01-06T12:10:10.938Z,2.66
2024-01-06T12:11:15.798Z,2.62
2024-01-06T12:12:19.026Z,2.64
2024-01-06T12:13:23.854Z,2.63
2024-01-06T12:14:28.606Z,2.58
2024-01-06T12:15:38.995Z,2.62
2024-01-06T12:16:41.306Z,2.62
2024-01-06T12:17:47.609Z,2.55
2024-01-06T12:18:49.940Z,2.52
2024-01-06T12:19:53.047Z,2.50
2024-01-06T12:20:58.328Z,2.31
2024-01-06T12:22:00.917Z,2.42
2024-01-06T12:23:07.825Z,2.39
2024-01-06T12:24:16.728Z,2.43
2024-01-06T12:25:21.708Z,2.39
2024-01-06T12:26:23.974Z,2.47
2024-01-06T12:27:29.250Z,2.44
2024-01-06T12:28:31.556Z,2.41
2024-01-06T12:29:41.953Z,2.35
2024-01-06T12:30:46.034Z,2.34
2024-01-06T12:31:51.119Z,2.35
2024-01-06T12:32:54.289Z,2.23
2024-01-06T12:33:59.920Z,2.26
2024-01-06T12:35:02.354Z,2.23
2024-01-06T12:36:14.252Z,2.20
2024-01-06T12:37:24.254Z,2.30
2024-01-06T12:38:29.477Z,2.28
2024-01-06T12:39:32.590Z,2.37
2024-01-06T12:40:39.736Z,2.39
2024-01-06T12:41:42.515Z,2.40
2024-01-06T12:42:47.605Z,2.46
2024-01-06T12:43:49.825Z,2.52
2024-01-06T12:44:54.716Z,2.47
2024-01-06T12:45:59.838Z,2.42
2024-01-06T12:47:02.019Z,2.42
2024-01-06T12:48:12.992Z,2.24
2024-01-06T12:49:15.459Z,2.35
2024-01-06T12:50:17.901Z,2.36
2024-01-06T12:51:22.844Z,2.37
2024-01-06T12:52:25.483Z,2.46
2024-01-06T12:53:30.486Z,2.41
2024-01-06T12:54:32.749Z,2.40
2024-01-06T12:55:37.540Z,2.34
2024-01-06T12:56:40.303Z,2.34
2024-01-06T12:57:46.887Z,2.40
2024-01-06T12:58:49.402Z,2.35
2024-01-06T12:59:56.779Z,2.33
2024-01-06T13:00:59.266Z,2.30
2024-01-06T13:02:01.604Z,2.37
2024-01-06T13:03:08.278Z,2.46
2024-01-06T13:04:11.246Z,2.52
2024-01-06T13:05:17.189Z,2.45
2024-01-06T13:06:20.551Z,2.52
2024-01-06T13:07:25.924Z,2.53
2024-01-06T13:08:29.192Z,2.49
2024-01-06T13:09:34.369Z,2.51
2024-01-06T13:10:37.202Z,2.45
2024-01-06T13:11:42.099Z,2.36
2024-01-06T13:12:44.381Z,2.43
2024-01-06T13:13:49.250Z,2.46
2024-01-06T13:14:54.100Z,2.38
2024-01-06T13:15:59.030Z,2.36
2024-01-06T13:17:01.385Z,2.41
2024-01-06T13:18:06.552Z,2.41
2024-01-06T13:19:08.985Z,2.43
2024-01-06T13:20:14.494Z,2.51
2024-01-06T13:21:16.848Z,2.55
2024-01-06T13:22:23.467Z,2.58
2024-01-06T13:23:25.792Z,2.56
2024-01-06T13:24:30.768Z,2.59
2024-01-06T13:25:33.029Z,2.50
2024-01-06T13:26:35.225Z,2.51
2024-01-06T13:27:40.174Z,2.47
2024-01-06T13:28:42.324Z,2.54
2024-01-06T13:29:47.150Z,2.56
2024-01-06T13:30:52.141Z,2.69
2024-01-06T13:31:58.794Z,2.62
2024-01-06T13:33:01.896Z,2.64
2024-01-06T13:34:07.330Z,2.66
2024-01-06T13:35:11.959Z,2.70
2024-01-06T13:36:14.392Z,2.69
2024-01-06T13:37:19.384Z,2.65
2024-01-06T13:38:23.582Z,2.71
2024-01-06T13:39:28.475Z,2.65
2024-01-06T13:40:30.726Z,2.58
2024-01-06T13:41:40.383Z,2.66
2024-01-06T13:42:43.267Z,2.71
2024-01-06T13:43:52.187Z,2.73
2024-01-06T13:44:54.708Z,2.69
2024-01-06T13:46:03.016Z,2.69
2024-01-06T13:47:06.218Z,2.63
2024-01-06T13:48:10.561Z,2.60
2024-01-06T13:49:15.935Z,2.62
2024-01-06T13:50:19.971Z,2.73
2024-01-06T13:51:24.974Z,2.70
2024-01-06T13:52:27.994Z,2.66
2024-01-06T13:53:33.074Z,2.62
2024-01-06T13:54:35.547Z,2.54
2024-01-06T13:55:40.378Z,2.49
2024-01-06T13:56:42.566Z,2.55
2024-01-06T13:57:45.022Z,2.49
2024-01-06T13:58:50.011Z,2.45
2024-01-06T13:59:52.414Z,2.50
2024-01-06T14:00:57.332Z,2.59
2024-01-06T14:02:02.204Z,2.58
2024-01-06T14:03:08.342Z,2.63
2024-01-06T14:04:10.894Z,2.62
2024-01-06T14:05:13.235Z,2.59
2024-01-06T14:06:19.372Z,2.61
2024-01-06T14:07:23.362Z,2.56
2024-01-06T14:08:28.265Z,2.55
2024-01-06T14:09:30.537Z,2.49
2024-01-06T14:10:35.626Z,2.45
2024-01-06T14:11:37.823Z,2.44
2024-01-06T14:12:42.708Z,2.46
2024-01-06T14:13:49.781Z,2.44
2024-01-06T14:14:54.634Z,2.41
2024-01-06T14:15:56.967Z,2.42
2024-01-06T14:17:04.519Z,2.43
2024-01-06T14:18:07.137Z,2.43
2024-01-06T14:19:12.438Z,2.44